Time;durP1;ratioP1;P1;durP2;ratioP2;P2;SDS_P1;SDS_P2;PMS_P1;PMS_P2;Temp;Humidity;BMP_temperature;BMP_pressure;BME280_temperature;BME280_humidity;BME280_pressure;Samples;Min_cycle;Max_cycle;Signal;HPM_P1;HPM_P2
2022/04/23 00:02:10;;;;;;;11.00;5.80;;;23.30;53.80;;;;;;5070431;28;20043;-72
2022/04/23 00:04:37;;;;;;;11.23;6.50;;;23.40;55.00;;;;;;5075985;28;20079;-71
2022/04/23 00:07:05;;;;;;;8.10;5.97;;;23.50;54.80;;;;;;5076264;28;20049;-72
2022/04/23 00:09:32;;;;;;;7.43;5.25;;;23.50;55.10;;;;;;5076269;28;20124;-71
2022/04/23 00:11:59;;;;;;;10.02;6.45;;;23.40;55.10;;;;;;5076218;28;20052;-71
2022/04/23 00:14:27;;;;;;;8.13;6.15;;;23.50;54.10;;;;;;5075960;28;20067;-72
2022/04/23 00:16:57;;;;;;;11.98;6.20;;;23.40;54.70;;;;;;5076383;28;20029;-71
2022/04/23 00:19:23;;;;;;;8.68;6.38;;;23.30;53.40;;;;;;5076331;28;20409;-71
2022/04/23 00:21:49;;;;;;;11.10;6.70;;;23.30;55.00;;;;;;5075979;28;20052;-71
2022/04/23 00:24:15;;;;;;;17.83;7.43;;;23.30;55.10;;;;;;5076246;28;20044;-71
2022/04/23 00:26:41;;;;;;;9.27;6.68;;;23.40;55.10;;;;;;5076244;28;20029;-71
2022/04/23 00:29:07;;;;;;;9.05;5.63;;;23.20;55.40;;;;;;5076236;28;20063;-72
2022/04/23 00:31:35;;;;;;;9.40;6.43;;;23.20;55.40;;;;;;5075993;28;20100;-72
2022/04/23 00:34:01;;;;;;;11.27;6.28;;;23.20;55.30;;;;;;5076816;28;20093;-71
2022/04/23 00:36:28;;;;;;;9.05;6.38;;;23.10;55.50;;;;;;5079785;28;20064;-71
2022/04/23 00:38:54;;;;;;;11.32;5.97;;;23.10;55.30;;;;;;5080122;28;20043;-73
2022/04/23 00:44:07;;;;;;;9.43;6.15;;;23.20;55.30;;;;;;5079795;28;20033;-73
2022/04/23 00:46:33;;;;;;;12.50;6.90;;;23.10;55.10;;;;;;5079201;28;20048;-71
2022/04/23 00:48:59;;;;;;;10.80;6.32;;;23.10;55.10;;;;;;5079888;28;20048;-72
2022/04/23 00:51:27;;;;;;;8.45;6.25;;;23.20;55.30;;;;;;5079956;28;20044;-72
2022/04/23 00:53:54;;;;;;;5.53;4.07;;;23.20;55.30;;;;;;5079628;28;20045;-72
2022/04/23 00:56:23;;;;;;;10.25;6.72;;;23.20;54.90;;;;;;5079527;28;20049;-71
2022/04/23 00:58:50;;;;;;;10.07;6.72;;;23.20;54.90;;;;;;5079882;28;20041;-73
2022/04/23 01:01:16;;;;;;;12.82;6.13;;;23.10;54.90;;;;;;5079742;28;20096;-71
2022/04/23 01:03:45;;;;;;;8.20;5.50;;;23.20;54.70;;;;;;5079268;28;20041;-72
2022/04/23 01:06:12;;;;;;;14.50;6.60;;;23.10;55.10;;;;;;5069369;28;20056;-71
2022/04/23 01:08:38;;;;;;;8.93;6.20;;;23.10;55.20;;;;;;5059670;28;20042;-71
2022/04/23 01:11:04;;;;;;;8.80;5.50;;;23.20;55.00;;;;;;5059222;28;20056;-71
2022/04/23 01:13:32;;;;;;;13.02;6.10;;;23.20;54.90;;;;;;5076828;28;20041;-71
2022/04/23 01:16:07;;;;;;;13.43;7.40;;;23.20;54.70;;;;;;5079371;28;20088;-71
2022/04/23 01:18:36;;;;;;;14.02;6.68;;;23.10;54.80;;;;;;5079448;28;20075;-72
2022/04/23 01:21:04;;;;;;;9.05;6.05;;;23.20;55.00;;;;;;5083968;28;20071;-73
2022/04/23 01:23:30;;;;;;;11.82;6.20;;;23.20;55.00;;;;;;5099144;28;20076;-71
2022/04/23 01:25:58;;;;;;;8.70;5.57;;;23.20;54.90;;;;;;5099202;28;20046;-71
2022/04/23 01:28:27;;;;;;;7.55;5.60;;;23.20;55.10;;;;;;5098847;28;20041;-71
2022/04/23 01:30:56;;;;;;;14.38;5.57;;;23.30;55.00;;;;;;5098842;28;20037;-72
2022/04/23 01:33:23;;;;;;;15.15;6.22;;;23.20;54.70;;;;;;5099106;28;20055;-71
2022/04/23 01:35:49;;;;;;;9.32;4.50;;;23.20;54.80;;;;;;5098533;28;20043;-72
2022/04/23 01:38:15;;;;;;;8.35;5.45;;;23.10;54.20;;;;;;5099185;28;20037;-70
2022/04/23 01:40:42;;;;;;;9.52;5.72;;;23.00;54.80;;;;;;5091954;28;20037;-71
2022/04/23 01:43:08;;;;;;;11.15;5.38;;;23.10;54.90;;;;;;5078692;28;20037;-71
2022/04/23 01:45:38;;;;;;;9.57;5.10;;;23.10;55.20;;;;;;5077803;28;20045;-71
2022/04/23 01:48:05;;;;;;;7.57;5.18;;;23.00;55.10;;;;;;5078835;28;20053;-71
2022/04/23 01:50:31;;;;;;;8.93;5.10;;;23.10;55.20;;;;;;5078945;28;20051;-72
2022/04/23 01:52:58;;;;;;;6.80;4.20;;;23.10;55.00;;;;;;5078186;28;20067;-71
2022/04/23 01:55:24;;;;;;;9.60;5.63;;;23.20;54.90;;;;;;5077946;28;20044;-71
2022/04/23 01:57:50;;;;;;;10.52;4.78;;;23.10;54.80;;;;;;5078273;28;20032;-71
2022/04/23 02:00:16;;;;;;;10.93;4.90;;;23.20;54.80;;;;;;5083418;28;20036;-72
2022/04/23 02:02:43;;;;;;;6.40;4.82;;;23.20;54.70;;;;;;5098483;28;20036;-73
2022/04/23 02:05:10;;;;;;;7.40;5.70;;;23.10;54.70;;;;;;5098598;28;20056;-72
2022/04/23 02:07:44;;;;;;;10.82;5.60;;;23.10;54.80;;;;;;5097720;28;20066;-71
2022/04/23 02:10:12;;;;;;;9.32;5.13;;;23.00;54.90;;;;;;5098556;28;20047;-71
2022/04/23 02:12:39;;;;;;;8.40;5.43;;;23.00;55.00;;;;;;5098235;28;20310;-71
2022/04/23 02:15:13;;;;;;;9.75;4.82;;;23.00;54.90;;;;;;5097769;28;20083;-71
2022/04/23 02:17:42;;;;;;;9.45;5.38;;;23.00;55.20;;;;;;5098375;28;20051;-71
2022/04/23 02:20:15;;;;;;;7.25;4.95;;;23.00;55.20;;;;;;5084726;28;20040;-71
2022/04/23 02:22:42;;;;;;;7.72;4.57;;;23.00;55.20;;;;;;5077241;28;20039;-71
2022/04/23 02:25:09;;;;;;;8.52;5.30;;;23.00;55.30;;;;;;5071413;28;20045;-72
2022/04/23 02:27:43;;;;;;;7.70;4.70;;;23.00;55.10;;;;;;5057720;28;20045;-71
2022/04/23 02:30:14;;;;;;;10.55;4.32;;;23.00;55.00;;;;;;5057548;28;20044;-71
2022/04/23 02:32:42;;;;;;;9.95;4.97;;;23.10;55.00;;;;;;5057881;28;20038;-71
2022/04/23 02:35:10;;;;;;;12.57;4.40;;;23.20;54.90;;;;;;5057195;28;20056;-71
2022/04/23 02:37:36;;;;;;;7.28;4.40;;;23.20;54.80;;;;;;5063043;28;20060;-71
2022/04/23 02:40:03;;;;;;;6.35;4.00;;;23.20;54.80;;;;;;5077918;28;20045;-71
2022/04/23 02:42:30;;;;;;;6.85;4.82;;;23.10;54.80;;;;;;5077462;28;20059;-73
2022/04/23 02:45:01;;;;;;;7.78;4.70;;;23.10;55.00;;;;;;5077423;28;20048;-71
2022/04/23 02:47:41;;;;;;;12.05;4.95;;;23.10;55.10;;;;;;5077911;28;20097;-71
2022/04/23 02:50:09;;;;;;;7.35;4.95;;;23.10;55.10;;;;;;5076734;28;20063;-71
2022/04/23 02:52:36;;;;;;;10.75;4.53;;;23.10;55.10;;;;;;5077572;28;20043;-72
2022/04/23 02:55:04;;;;;;;6.20;4.55;;;23.00;55.10;;;;;;5077174;28;20048;-71
2022/04/23 02:57:31;;;;;;;9.13;4.80;;;22.90;55.10;;;;;;5086324;28;20024;-71
2022/04/23 02:59:57;;;;;;;12.38;4.68;;;22.90;55.20;;;;;;5097384;28;20041;-71
2022/04/23 03:02:23;;;;;;;7.13;3.97;;;22.80;55.30;;;;;;5097378;28;20048;-71
2022/04/23 03:04:49;;;;;;;9.45;4.15;;;22.80;55.40;;;;;;5097264;28;20040;-71
2022/04/23 03:07:15;;;;;;;9.90;4.68;;;22.90;55.60;;;;;;5097390;28;20041;-71
2022/04/23 03:09:41;;;;;;;6.72;4.38;;;22.80;55.50;;;;;;5097229;28;20040;-71
2022/04/23 03:12:09;;;;;;;7.25;4.25;;;22.70;55.60;;;;;;5079511;28;20052;-71
2022/04/23 03:14:35;;;;;;;6.90;4.07;;;22.80;55.60;;;;;;5083171;28;20044;-71
2022/04/23 03:17:02;;;;;;;5.55;3.90;;;22.70;55.50;;;;;;5096929;28;20040;-72
2022/04/23 03:19:28;;;;;;;9.98;4.38;;;22.80;55.50;;;;;;5097302;28;20086;-71
2022/04/23 03:21:56;;;;;;;8.45;4.20;;;22.60;55.50;;;;;;5097063;28;20037;-72
2022/04/23 03:24:22;;;;;;;7.38;4.10;;;22.60;55.60;;;;;;5096029;28;20040;-71
2022/04/23 03:26:48;;;;;;;6.25;3.95;;;22.60;55.50;;;;;;5096844;28;20032;-72
2022/04/23 03:29:14;;;;;;;7.60;3.70;;;22.60;55.50;;;;;;5097129;28;20047;-71
2022/04/23 03:31:40;;;;;;;5.53;3.95;;;22.60;55.60;;;;;;5096662;28;20028;-72
2022/04/23 03:34:07;;;;;;;5.95;4.18;;;22.50;55.60;;;;;;5089089;28;20029;-72
2022/04/23 03:36:34;;;;;;;5.97;3.90;;;22.60;55.60;;;;;;5076463;28;20041;-70
2022/04/23 03:39:00;;;;;;;6.22;3.80;;;22.60;55.40;;;;;;5076228;28;20075;-71
2022/04/23 03:41:26;;;;;;;4.85;2.67;;;22.70;55.60;;;;;;5072489;28;20052;-71
2022/04/23 03:43:52;;;;;;;7.53;2.92;;;22.70;55.40;;;;;;5067564;28;20092;-73
2022/04/23 03:46:20;;;;;;;5.10;3.30;;;22.90;55.10;;;;;;5076707;28;20045;-73
2022/04/23 03:48:46;;;;;;;5.40;3.28;;;22.90;54.70;;;;;;5076756;28;20060;-70
2022/04/23 03:51:13;;;;;;;6.53;2.95;;;23.00;54.50;;;;;;5080989;28;20051;-73
2022/04/23 03:53:39;;;;;;;6.90;3.15;;;23.10;54.40;;;;;;5096529;28;20040;-72
2022/04/23 03:56:06;;;;;;;4.40;2.63;;;23.10;54.20;;;;;;5096288;28;20104;-73
2022/04/23 03:58:32;;;;;;;8.00;4.00;;;23.10;54.20;;;;;;5096525;28;20055;-71
2022/04/23 04:00:58;;;;;;;6.55;2.72;;;23.10;54.00;;;;;;5096536;28;20032;-70
2022/04/23 04:03:24;;;;;;;10.38;3.17;;;23.20;57.00;;;;;;5096031;28;20041;-69
2022/04/23 04:05:51;;;;;;;5.65;2.95;;;23.30;59.30;;;;;;5095554;28;20075;-70
2022/04/23 04:08:17;;;;;;;4.95;2.78;;;23.50;63.20;;;;;;5090680;28;20036;-71
2022/04/23 04:10:43;;;;;;;5.22;2.80;;;23.60;61.80;;;;;;5082216;28;20044;-71
2022/04/23 04:13:09;;;;;;;6.50;2.97;;;23.70;59.60;;;;;;5081750;28;20071;-72
2022/04/23 04:15:36;;;;;;;7.15;3.38;;;23.70;55.20;;;;;;5081261;28;20070;-72
2022/04/23 04:18:03;;;;;;;6.43;3.50;;;23.60;53.70;;;;;;5082002;28;20043;-73
2022/04/23 04:20:32;;;;;;;9.60;3.88;;;23.60;52.90;;;;;;5081901;28;20045;-72
2022/04/23 04:23:00;;;;;;;6.80;2.83;;;23.60;52.90;;;;;;5081791;28;20066;-72
2022/04/23 04:25:27;;;;;;;4.65;3.30;;;23.60;52.00;;;;;;5082281;28;20048;-72
2022/04/23 04:27:53;;;;;;;4.78;3.17;;;23.70;51.30;;;;;;5101254;28;20066;-72
2022/04/23 04:30:19;;;;;;;8.23;3.05;;;23.60;50.40;;;;;;5102375;28;20090;-73
2022/04/23 04:32:45;;;;;;;9.85;4.43;;;23.60;49.60;;;;;;5102022;28;20040;-72
2022/04/23 04:35:11;;;;;;;4.07;3.20;;;23.50;49.00;;;;;;5101981;28;20043;-72
2022/04/23 04:37:38;;;;;;;8.93;3.45;;;23.50;48.40;;;;;;5102374;28;20032;-72
2022/04/23 04:40:05;;;;;;;6.55;3.33;;;23.60;48.00;;;;;;5102097;28;20047;-73
2022/04/23 04:42:31;;;;;;;3.90;3.08;;;23.50;47.60;;;;;;5101980;28;20036;-73
2022/04/23 04:44:58;;;;;;;6.50;3.03;;;23.60;47.70;;;;;;5093464;28;20037;-73
2022/04/23 04:47:24;;;;;;;4.20;3.80;;;23.50;47.60;;;;;;5081976;28;20040;-73
2022/04/23 04:49:51;;;;;;;6.40;3.25;;;23.50;47.40;;;;;;5081826;28;20108;-72
2022/04/23 04:52:17;;;;;;;7.25;3.15;;;23.50;47.20;;;;;;5081539;28;20037;-72
2022/04/23 04:54:43;;;;;;;7.90;3.08;;;23.60;47.00;;;;;;5081660;28;20052;-74
2022/04/23 04:57:09;;;;;;;7.47;2.80;;;23.50;46.90;;;;;;5082029;28;20029;-74
2022/04/23 04:59:36;;;;;;;8.00;2.83;;;23.40;46.10;;;;;;5082099;28;20040;-74
2022/04/23 05:02:02;;;;;;;4.93;2.05;;;23.40;45.80;;;;;;5081100;28;20168;-73
2022/04/23 05:04:29;;;;;;;5.45;3.03;;;23.40;45.90;;;;;;5080630;28;20074;-72
2022/04/23 05:06:55;;;;;;;6.70;3.05;;;23.40;44.20;;;;;;5061996;28;20037;-73
2022/04/23 05:09:22;;;;;;;4.57;2.88;;;23.30;43.20;;;;;;5081445;28;20042;-72
2022/04/23 05:11:48;;;;;;;4.28;2.58;;;23.20;42.80;;;;;;5081926;28;20033;-71
2022/04/23 05:14:18;;;;;;;5.22;2.80;;;23.30;44.30;;;;;;5081860;28;20062;-71
2022/04/23 05:16:44;;;;;;;3.88;2.85;;;23.20;44.20;;;;;;5081553;28;20036;-70
2022/04/23 05:19:11;;;;;;;4.75;2.55;;;23.20;43.10;;;;;;5081445;28;20041;-70
2022/04/23 05:21:37;;;;;;;3.00;2.67;;;23.30;44.10;;;;;;5079322;28;20044;-72
2022/04/23 05:24:06;;;;;;;5.00;2.42;;;23.30;44.10;;;;;;5078453;28;20029;-74
2022/04/23 05:26:33;;;;;;;4.13;2.75;;;23.20;45.40;;;;;;5078777;28;20378;-71
2022/04/23 05:28:59;;;;;;;5.88;3.70;;;23.30;45.20;;;;;;5078673;28;20044;-71
2022/04/23 05:31:25;;;;;;;5.28;4.32;;;23.30;47.00;;;;;;5077781;28;20044;-70
2022/04/23 05:33:51;;;;;;;9.60;6.00;;;23.40;46.30;;;;;;5078362;28;20048;-70
2022/04/23 05:36:17;;;;;;;10.15;5.53;;;23.50;48.50;;;;;;5077617;28;20037;-70
2022/04/23 05:38:44;;;;;;;10.68;3.53;;;23.50;48.60;;;;;;5077950;28;20037;-69
2022/04/23 05:41:10;;;;;;;5.13;3.10;;;23.60;43.70;;;;;;5077366;28;20037;-68
2022/04/23 05:43:36;;;;;;;9.65;4.15;;;23.60;42.80;;;;;;5077645;28;20056;-69
2022/04/23 05:46:06;;;;;;;6.50;5.00;;;23.40;47.20;;;;;;5077127;28;20045;-70
2022/04/23 05:48:36;;;;;;;6.95;4.63;;;23.60;48.30;;;;;;5077961;28;20071;-68
2022/04/23 05:51:03;;;;;;;16.88;10.98;;;23.60;47.80;;;;;;5077645;28;20070;-69
2022/04/23 05:53:29;;;;;;;20.65;13.73;;;23.70;50.10;;;;;;5077590;28;20052;-72
2022/04/23 05:55:56;;;;;;;21.75;13.27;;;23.80;50.80;;;;;;5077513;28;20041;-70
2022/04/23 05:58:23;;;;;;;40.72;24.00;;;23.80;47.90;;;;;;5077249;28;20033;-70
2022/04/23 06:00:52;;;;;;;21.55;13.20;;;23.80;44.80;;;;;;5081879;28;20036;-71
2022/04/23 06:03:20;;;;;;;5.88;4.18;;;23.90;51.80;;;;;;5077618;28;20063;-71
2022/04/23 06:05:46;;;;;;;4.55;3.55;;;24.00;55.80;;;;;;5077292;28;20060;-70
2022/04/23 06:08:12;;;;;;;10.27;4.07;;;24.10;57.80;;;;;;5077423;28;20049;-70
2022/04/23 06:10:38;;;;;;;5.40;3.40;;;24.10;57.20;;;;;;5077387;28;20080;-70
2022/04/23 06:13:07;;;;;;;7.13;4.50;;;24.20;56.40;;;;;;5077190;28;20045;-71
2022/04/23 06:15:34;;;;;;;4.85;3.60;;;24.00;55.60;;;;;;5077326;28;20052;-72
2022/04/23 06:18:00;;;;;;;9.38;3.55;;;24.10;54.50;;;;;;5077601;28;20044;-72
2022/04/23 06:20:27;;;;;;;6.97;3.28;;;23.90;50.70;;;;;;5087564;28;20033;-71
2022/04/23 06:22:54;;;;;;;5.97;3.28;;;24.00;54.20;;;;;;5077083;28;20044;-70
2022/04/23 06:25:21;;;;;;;8.70;3.25;;;23.90;54.00;;;;;;5076974;28;20067;-71
2022/04/23 06:27:47;;;;;;;7.30;4.15;;;24.00;53.90;;;;;;5077304;28;20070;-71
2022/04/23 06:30:13;;;;;;;3.83;2.75;;;23.90;54.70;;;;;;5077157;28;20037;-71
2022/04/23 06:32:39;;;;;;;4.93;3.20;;;23.90;53.30;;;;;;5076135;28;20029;-70
2022/04/23 06:35:07;;;;;;;12.73;3.30;;;23.80;52.20;;;;;;5067061;28;20056;-70
2022/04/23 06:37:43;;;;;;;8.30;3.58;;;23.80;52.70;;;;;;5068250;28;20046;-71
2022/04/23 06:40:13;;;;;;;5.35;3.15;;;23.80;53.60;;;;;;5096270;28;20044;-71
2022/04/23 06:42:41;;;;;;;3.95;2.95;;;23.80;55.60;;;;;;5096502;28;20054;-69
2022/04/23 06:45:11;;;;;;;9.05;3.05;;;23.90;55.80;;;;;;5096063;28;20063;-69
2022/04/23 06:47:38;;;;;;;5.93;3.00;;;23.80;53.10;;;;;;5096835;28;20043;-69
2022/04/23 06:50:06;;;;;;;6.35;2.90;;;23.80;56.00;;;;;;5077418;28;20037;-68
2022/04/23 06:52:32;;;;;;;2.85;2.17;;;23.50;56.10;;;;;;5076069;28;20041;-67
2022/04/23 06:55:05;;;;;;;10.95;3.50;;;23.80;55.60;;;;;;5077108;28;20049;-68
2022/04/23 06:57:31;;;;;;;;;;;23.80;55.00;;;;;;5097462;28;20051;-68
2022/04/23 07:00:00;;;;;;;6.50;3.17;;;23.80;54.60;;;;;;5087284;28;19936;-68
2022/04/23 07:02:27;;;;;;;6.55;3.35;;;23.70;54.60;;;;;;5076662;28;20036;-67
2022/04/23 07:04:53;;;;;;;5.25;3.50;;;23.80;54.50;;;;;;5076606;28;20037;-68
2022/04/23 07:07:19;;;;;;;4.70;3.05;;;23.70;54.50;;;;;;5056756;28;20037;-68
2022/04/23 07:09:45;;;;;;;7.07;3.67;;;23.80;54.40;;;;;;5076496;28;20045;-68
2022/04/23 07:12:11;;;;;;;10.05;3.55;;;23.80;50.20;;;;;;5076309;28;20100;-67
2022/04/23 07:14:39;;;;;;;5.60;2.75;;;23.70;55.10;;;;;;5080618;28;20062;-69
2022/04/23 07:17:05;;;;;;;9.57;2.80;;;23.80;54.20;;;;;;5076262;28;20100;-68
2022/04/23 07:19:32;;;;;;;7.00;3.75;;;23.90;55.00;;;;;;5075383;28;20041;-68
2022/04/23 07:21:58;;;;;;;6.22;3.30;;;23.80;51.00;;;;;;5075888;28;20037;-68
2022/04/23 07:24:25;;;;;;;5.05;3.30;;;23.70;54.50;;;;;;5075840;28;20068;-68
2022/04/23 07:26:51;;;;;;;4.60;3.47;;;23.70;55.20;;;;;;5075886;28;20040;-68
2022/04/23 07:29:17;;;;;;;6.80;2.92;;;23.70;54.50;;;;;;5075171;28;20033;-67
2022/04/23 07:31:43;;;;;;;4.22;2.85;;;23.80;55.00;;;;;;5074842;28;20063;-67
2022/04/23 07:39:38;;;;;;;4.47;2.95;;;23.90;54.70;;;;;;5056162;28;20049;-67
2022/04/23 07:42:05;;;;;;;7.30;3.05;;;23.90;56.80;;;;;;5055965;28;20080;-68
2022/04/23 07:44:32;;;;;;;8.23;2.60;;;23.90;56.50;;;;;;5055038;28;20056;-68
2022/04/23 07:46:58;;;;;;;3.55;2.85;;;23.90;56.00;;;;;;5056139;28;20048;-68
2022/04/23 07:49:24;;;;;;;7.22;1.88;;;23.90;49.00;;;;;;5055993;28;20041;-68
2022/04/23 07:51:50;;;;;;;8.23;2.03;;;23.90;47.70;;;;;;5070494;28;20065;-68
2022/04/23 07:54:17;;;;;;;1.55;1.10;;;23.90;47.70;;;;;;5075636;28;20037;-68
2022/04/23 07:56:44;;;;;;;1.17;1.08;;;24.00;54.10;;;;;;5075708;28;20051;-68
2022/04/23 07:59:10;;;;;;;4.50;2.28;;;24.10;54.20;;;;;;5067032;28;20037;-68
2022/04/23 08:01:36;;;;;;;3.38;2.28;;;24.20;55.00;;;;;;5075801;28;20075;-67
2022/04/23 08:04:03;;;;;;;6.45;3.65;;;24.20;53.70;;;;;;5075431;28;20032;-68
2022/04/23 08:06:31;;;;;;;4.60;2.85;;;24.50;54.70;;;;;;5075770;28;20064;-68
2022/04/23 08:08:57;;;;;;;3.65;1.75;;;24.50;52.90;;;;;;5087414;28;20444;-69
2022/04/23 08:11:23;;;;;;;9.40;1.95;;;24.70;55.10;;;;;;5094890;28;20052;-68
2022/04/23 08:13:52;;;;;;;4.07;2.03;;;24.80;52.80;;;;;;5094686;28;20033;-69
2022/04/23 08:16:20;;;;;;;6.03;2.20;;;25.20;51.40;;;;;;5095132;28;20048;-69
2022/04/23 08:18:46;;;;;;;1.88;1.60;;;25.30;47.30;;;;;;5094888;28;20032;-68
2022/04/23 08:21:12;;;;;;;4.85;2.25;;;25.20;45.10;;;;;;5095263;28;20040;-68
2022/04/23 08:23:38;;;;;;;3.08;1.42;;;25.10;43.50;;;;;;5095496;28;20029;-69
2022/04/23 08:26:06;;;;;;;2.55;1.83;;;25.00;43.70;;;;;;5095346;28;20127;-71
2022/04/23 08:31:17;;;;;;;5.65;1.90;;;24.90;43.60;;;;;;5055717;28;20045;-68
2022/04/23 08:34:16;;;;;;;2.67;1.15;;;24.90;43.80;;;;;;5055468;28;20099;-68
2022/04/23 08:36:36;;;;;;;4.95;1.63;;;24.70;43.60;;;;;;5057011;28;20049;-68
2022/04/23 08:39:06;;;;;;;3.03;2.55;;;24.80;44.60;;;;;;5055408;28;20026;-67
2022/04/23 08:41:35;;;;;;;5.97;2.17;;;24.80;44.90;;;;;;5055386;28;20049;-68
2022/04/23 08:44:06;;;;;;;10.43;2.70;;;24.90;46.90;;;;;;5055041;28;20067;-68
2022/04/23 08:46:40;;;;;;;1.75;1.48;;;24.80;48.00;;;;;;5067295;28;20071;-69
2022/04/23 08:49:05;;;;;;;8.25;4.90;;;25.00;51.40;;;;;;5095726;28;20075;-68
2022/04/23 08:51:34;;;;;;;18.08;2.08;;;25.00;50.50;;;;;;5095556;28;20040;-69
2022/04/23 08:54:07;;;;;;;27.50;4.28;;;25.00;45.40;;;;;;5095270;28;20070;-68
2022/04/23 08:56:35;;;;;;;5.15;2.55;;;25.10;48.80;;;;;;5098227;28;20078;-68
2022/04/23 08:59:01;;;;;;;1.08;1.00;;;25.10;42.50;;;;;;5099101;28;20040;-68
2022/04/23 09:01:32;;;;;;;3.55;2.40;;;25.10;41.30;;;;;;5098426;28;20044;-68
2022/04/23 09:03:59;;;;;;;5.72;2.35;;;25.00;43.80;;;;;;5062491;28;20096;-68
2022/04/23 09:06:42;;;;;;;2.08;1.90;;;25.00;44.20;;;;;;5068659;28;20072;-68
2022/04/23 09:09:23;;;;;;;9.15;1.50;;;24.90;42.80;;;;;;5078740;28;20040;-76
2022/04/23 09:11:53;;;;;;;6.10;1.83;;;24.90;41.60;;;;;;5077140;28;20089;-69
2022/04/23 09:14:30;;;;;;;3.78;1.42;;;24.80;42.70;;;;;;5078558;28;20029;-69
2022/04/23 09:25:17;;;;;;;3.97;2.90;;;24.70;42.40;;;;;;5075480;28;20040;-68
2022/04/23 09:27:43;;;;;;;4.28;3.15;;;24.70;43.20;;;;;;5078387;28;20044;-70
2022/04/23 09:30:12;;;;;;;4.15;2.95;;;24.80;43.80;;;;;;5078116;28;20104;-71
2022/04/23 09:32:56;;;;;;;20.52;13.75;;;24.70;49.50;;;;;;5078545;28;20039;-69
2022/04/23 09:35:23;;;;;;;25.13;10.38;;;25.10;50.30;;;;;;5077918;28;20719;-69
2022/04/23 09:40:34;;;;;;;74.85;23.98;;;25.70;47.30;;;;;;5077708;28;20044;-69
2022/04/23 09:43:09;;;;;;;50.65;21.75;;;25.80;44.90;;;;;;5089718;28;20052;-71
2022/04/23 09:45:41;;;;;;;23.40;11.48;;;25.70;43.70;;;;;;5097224;28;20066;-70
2022/04/23 09:48:10;;;;;;;;;;;25.40;43.40;;;;;;5098125;28;20044;-70
2022/04/23 09:50:37;;;;;;;12.55;4.68;;;25.50;41.60;;;;;;5083023;28;19916;-69
2022/04/23 09:53:09;;;;;;;7.88;4.22;;;25.60;41.40;;;;;;5077894;28;20041;-69
2022/04/23 09:55:37;;;;;;;7.38;4.13;;;25.50;41.50;;;;;;5077464;28;20049;-68
2022/04/23 09:58:08;;;;;;;4.20;1.98;;;25.50;41.90;;;;;;5077522;28;20037;-69
2022/04/23 10:00:42;;;;;;;3.45;2.72;;;25.40;43.00;;;;;;5077583;28;20048;-69
2022/04/23 10:03:09;;;;;;;6.70;2.58;;;25.40;43.40;;;;;;5078549;28;20048;-69
2022/04/23 10:05:46;;;;;;;4.10;1.70;;;25.60;44.90;;;;;;5077665;28;20068;-69
2022/04/23 10:08:15;;;;;;;6.28;3.40;;;25.60;46.80;;;;;;5058051;28;20048;-69
2022/04/23 10:10:48;;;;;;;4.38;1.92;;;25.60;43.70;;;;;;5077442;28;20043;-69
2022/04/23 10:13:16;;;;;;;5.18;3.15;;;25.40;43.80;;;;;;5077788;28;20037;-68
2022/04/23 10:15:46;;;;;;;3.10;1.63;;;25.40;42.70;;;;;;5077456;28;20056;-68
2022/04/23 10:18:13;;;;;;;7.53;3.13;;;25.30;42.10;;;;;;5077548;28;20037;-68
2022/04/23 10:20:40;;;;;;;6.32;3.55;;;25.30;40.30;;;;;;5073554;28;20030;-68
2022/04/23 10:23:11;;;;;;;5.03;2.90;;;25.30;41.80;;;;;;5077033;28;20043;-69
2022/04/23 10:25:46;;;;;;;3.05;0.93;;;25.30;42.30;;;;;;5077051;28;20041;-69
2022/04/23 10:28:12;;;;;;;2.03;1.65;;;25.30;46.70;;;;;;5073913;28;20053;-70
2022/04/23 10:30:38;;;;;;;1.10;1.00;;;25.20;44.90;;;;;;5067656;28;20045;-70
2022/04/23 10:33:27;;;;;;;2.53;2.30;;;25.30;45.20;;;;;;5070445;28;20041;-69
2022/04/23 10:36:09;;;;;;;1.70;1.60;;;25.30;46.30;;;;;;5066837;28;20124;-69
2022/04/23 10:38:42;;;;;;;2.92;1.67;;;25.30;45.50;;;;;;5072995;28;20066;-68
2022/04/23 10:41:10;;;;;;;;;;;25.30;46.00;;;;;;5070763;28;20041;-67
2022/04/23 10:44:05;;;;;;;1.40;1.30;;;25.20;46.10;;;;;;5063030;28;19924;-69
2022/04/23 10:46:37;;;;;;;1.00;0.95;;;25.30;48.00;;;;;;5070174;28;20037;-70
2022/04/23 10:49:14;;;;;;;0.98;0.98;;;25.30;50.80;;;;;;5067727;28;20041;-70
2022/04/23 10:51:50;;;;;;;7.72;3.38;;;25.40;51.70;;;;;;5065436;28;20625;-70
2022/04/23 10:54:19;;;;;;;3.28;1.58;;;25.50;51.20;;;;;;5071363;28;20053;-68
2022/04/23 10:56:50;;;;;;;2.40;2.00;;;25.30;49.10;;;;;;5071554;28;20112;-68
2022/04/23 10:59:43;;;;;;;0.80;0.80;;;25.40;48.40;;;;;;5068768;28;20072;-69
2022/04/23 11:02:22;;;;;;;4.55;2.40;;;25.30;48.30;;;;;;5064089;28;20043;-69
2022/04/23 11:13:38;;;;;;;3.75;2.40;;;25.70;45.40;;;;;;5062787;28;20056;-72
2022/04/23 11:16:10;;;;;;;4.40;2.53;;;25.70;45.10;;;;;;5066587;28;20051;-74
2022/04/23 11:18:37;;;;;;;4.65;2.85;;;25.60;45.40;;;;;;5066348;28;20112;-73
2022/04/23 11:21:11;;;;;;;7.20;2.47;;;25.70;45.50;;;;;;5065244;28;20044;-71
2022/04/23 11:23:42;;;;;;;12.32;3.13;;;25.50;46.00;;;;;;5063293;28;20037;-73
2022/04/23 11:26:13;;;;;;;5.10;2.90;;;25.40;46.10;;;;;;5067726;28;20076;-73
2022/04/23 11:28:40;;;;;;;3.80;2.40;;;25.50;46.30;;;;;;5080589;28;20047;-72
2022/04/23 11:31:17;;;;;;;4.53;3.03;;;25.40;46.10;;;;;;5066482;28;20049;-71
2022/04/23 11:34:12;;;;;;;4.80;2.65;;;25.40;46.10;;;;;;5071619;28;20123;-71
2022/04/23 11:36:38;;;;;;;3.75;2.70;;;25.30;47.00;;;;;;5066499;28;20043;-70
2022/04/23 11:39:09;;;;;;;4.47;3.70;;;25.30;46.60;;;;;;5073132;28;20052;-72
2022/04/23 11:41:39;;;;;;;2.50;1.92;;;25.30;47.30;;;;;;5068647;28;20049;-72
2022/04/23 11:44:18;;;;;;;3.20;2.38;;;25.20;47.30;;;;;;5074484;28;20044;-71
2022/04/23 11:46:53;;;;;;;4.38;3.13;;;25.20;47.40;;;;;;5073165;28;20044;-72
2022/04/23 11:49:30;;;;;;;4.65;1.90;;;25.10;46.90;;;;;;5069509;28;20044;-73
2022/04/23 11:52:07;;;;;;;12.82;3.45;;;25.00;47.70;;;;;;5063166;28;20080;-73
2022/04/23 11:54:37;;;;;;;9.98;3.38;;;24.90;47.60;;;;;;5062636;28;20037;-74
2022/04/23 11:57:05;;;;;;;1.85;0.88;;;25.00;47.70;;;;;;5070132;28;20092;-73
2022/04/23 11:59:44;;;;;;;5.47;2.90;;;25.00;46.90;;;;;;5065509;28;20042;-74
2022/04/23 12:02:18;;;;;;;6.95;3.58;;;25.00;48.00;;;;;;5067036;28;20037;-75
2022/04/23 12:04:45;;;;;;;5.38;2.90;;;25.00;48.20;;;;;;5074782;28;20037;-73
2022/04/23 12:07:12;;;;;;;4.05;2.85;;;24.90;48.40;;;;;;5074195;28;20037;-74
2022/04/23 12:09:50;;;;;;;4.30;3.10;;;24.90;48.40;;;;;;5074993;28;20097;-74
2022/04/23 12:12:21;;;;;;;4.25;3.22;;;24.80;48.30;;;;;;5074558;28;20041;-70
2022/04/23 12:14:56;;;;;;;4.18;2.35;;;24.80;47.80;;;;;;5073739;28;20044;-69
2022/04/23 12:17:26;;;;;;;4.85;3.10;;;24.80;47.40;;;;;;5064970;28;20096;-69
2022/04/23 12:19:54;;;;;;;3.67;2.67;;;24.80;47.50;;;;;;5054633;28;20045;-69
2022/04/23 12:22:28;;;;;;;4.75;2.53;;;24.70;48.50;;;;;;5055070;28;20056;-74
2022/04/23 12:25:18;;;;;;;4.93;3.20;;;24.70;52.00;;;;;;5054576;28;20064;-73
2022/04/23 12:27:56;;;;;;;10.38;4.55;;;24.80;51.70;;;;;;5054855;28;20060;-74
2022/04/23 12:41:58;;;;;;;10.63;5.13;;;24.80;49.00;;;;;;5098559;28;20094;-76
2022/04/23 12:44:44;;;;;;;6.88;4.20;;;24.70;48.70;;;;;;5094719;28;20108;-76
2022/04/23 12:47:26;;;;;;;16.73;6.00;;;24.80;48.60;;;;;;5077589;28;20101;-76
2022/04/23 12:49:56;;;;;;;13.63;5.85;;;24.70;48.80;;;;;;5079451;28;20036;-76
2022/04/23 12:52:24;;;;;;;11.77;6.75;;;24.80;48.50;;;;;;5079315;28;20033;-76
2022/04/23 12:55:14;;;;;;;13.90;7.78;;;24.70;48.60;;;;;;5079191;28;20045;-76
2022/04/23 12:57:41;;;;;;;11.02;7.43;;;24.70;48.60;;;;;;5061607;28;20043;-75
2022/04/23 13:00:09;;;;;;;7.93;5.72;;;24.70;48.50;;;;;;5077595;28;20067;-75
2022/04/23 13:02:36;;;;;;;19.67;8.55;;;24.70;48.90;;;;;;5073423;28;20041;-75
2022/04/23 13:05:05;;;;;;;13.75;7.95;;;24.80;49.10;;;;;;5071332;28;20052;-75
2022/04/23 13:10:24;;;;;;;11.75;8.43;;;24.80;48.80;;;;;;5094730;28;20108;-76
2022/04/23 13:12:51;;;;;;;15.27;8.93;;;24.80;49.00;;;;;;5067543;28;20070;-76
2022/04/23 13:15:21;;;;;;;10.77;5.35;;;24.70;48.20;;;;;;5076252;28;20033;-74
2022/04/23 13:17:47;;;;;;;11.68;8.95;;;24.90;46.10;;;;;;5072674;28;20050;-75
2022/04/23 13:20:15;;;;;;;9.27;7.40;;;24.80;43.90;;;;;;5073133;28;20108;-74
2022/04/23 13:22:43;;;;;;;13.13;8.23;;;24.70;43.90;;;;;;5076979;28;20055;-73
2022/04/23 13:25:15;;;;;;;12.57;8.18;;;24.80;46.00;;;;;;5079666;28;20029;-75
2022/04/23 13:27:42;;;;;;;14.77;7.68;;;24.80;45.90;;;;;;5098291;28;20068;-74
2022/04/23 13:30:10;;;;;;;10.63;7.43;;;24.80;43.40;;;;;;5098550;28;20075;-74
2022/04/23 13:32:38;;;;;;;12.65;9.35;;;24.90;44.00;;;;;;5098054;28;20036;-77
2022/04/23 13:35:07;;;;;;;14.73;9.50;;;25.00;44.20;;;;;;5084272;28;20067;-73
2022/04/23 13:37:34;;;;;;;14.73;9.60;;;25.10;46.30;;;;;;5076669;28;20039;-77
2022/04/23 13:40:00;;;;;;;14.38;9.00;;;25.30;52.00;;;;;;5077592;28;20070;-77